createdAt,value
2023-01-18T00:01:01.289Z,2.15
2023-01-18T00:03:27.882Z,2.25
2023-01-18T00:05:54.657Z,2.12
2023-01-18T00:08:21.217Z,2.03
2023-01-18T00:10:47.780Z,2.14
2023-01-18T00:13:14.301Z,2.14
2023-01-18T00:15:40.879Z,2.05
2023-01-18T00:18:07.400Z,2.12
2023-01-18T00:20:33.992Z,2.18
2023-01-18T00:23:01.869Z,2.10
2023-01-18T00:25:28.613Z,2.00
2023-01-18T00:27:55.422Z,1.96
2023-01-18T00:30:24.237Z,2.03
2023-01-18T00:32:55.382Z,2.04
2023-01-18T00:35:22.334Z,2.04
2023-01-18T00:37:49.277Z,1.85
2023-01-18T00:40:15.835Z,1.81
2023-01-18T00:43:01.024Z,1.95
2023-01-18T00:45:27.876Z,1.96
2023-01-18T00:47:54.424Z,2.06
2023-01-18T00:50:22.525Z,2.18
2023-01-18T00:52:49.784Z,2.18
2023-01-18T00:55:16.918Z,1.90
2023-01-18T00:57:43.470Z,2.11
2023-01-18T01:00:11.311Z,2.20
2023-01-18T01:02:41.618Z,2.05
2023-01-18T01:05:36.991Z,1.90
2023-01-18T01:08:03.921Z,1.66
2023-01-18T01:10:30.507Z,1.80
2023-01-18T01:13:15.882Z,1.88
2023-01-18T01:16:01.122Z,2.03
2023-01-18T01:18:46.434Z,1.85
2023-01-18T01:21:31.716Z,2.02
2023-01-18T01:24:16.752Z,2.01
2023-01-18T01:26:43.794Z,2.17
2023-01-18T01:29:10.346Z,2.08
2023-01-18T01:31:38.859Z,1.86
2023-01-18T01:34:05.400Z,1.85
2023-01-18T01:36:31.933Z,1.97
2023-01-18T01:38:58.566Z,2.08
2023-01-18T01:41:26.852Z,1.96
2023-01-18T01:44:04.776Z,2.09
2023-01-18T01:46:50.145Z,1.97
2023-01-18T01:49:24.130Z,2.06
2023-01-18T01:51:52.098Z,2.04
2023-01-18T01:54:21.341Z,2.04
2023-01-18T01:56:47.919Z,2.05
2023-01-18T01:59:14.782Z,2.08
2023-01-18T02:01:44.065Z,1.94
2023-01-18T02:04:10.693Z,1.82
2023-01-18T02:06:38.015Z,1.69
2023-01-18T02:09:08.658Z,1.94
2023-01-18T02:11:35.414Z,1.95
2023-01-18T02:14:03.405Z,1.87
2023-01-18T02:16:34.216Z,1.92
2023-01-18T02:19:19.824Z,2.01
2023-01-18T02:22:09.012Z,1.88
2023-01-18T02:24:40.054Z,1.91
2023-01-18T02:27:18.334Z,1.91
2023-01-18T02:29:57.077Z,1.75
2023-01-18T02:32:32.832Z,1.79
2023-01-18T02:35:08.143Z,1.90
2023-01-18T02:37:53.958Z,2.00
2023-01-18T02:40:32.087Z,1.73
2023-01-18T02:43:17.938Z,1.87
2023-01-18T02:46:04.404Z,1.89
2023-01-18T02:48:32.525Z,1.97
2023-01-18T02:50:59.061Z,1.77
2023-01-18T02:53:25.609Z,1.79
2023-01-18T02:55:54.261Z,1.79
2023-01-18T02:58:23.881Z,1.80
2023-01-18T03:00:55.231Z,1.86
2023-01-18T03:03:22.133Z,1.82
2023-01-18T03:05:48.663Z,1.98
2023-01-18T03:08:33.334Z,1.92
2023-01-18T03:11:00.941Z,2.07
2023-01-18T03:13:48.334Z,1.89
2023-01-18T03:16:22.883Z,1.60
2023-01-18T03:19:01.741Z,1.56
2023-01-18T03:21:30.269Z,1.77
2023-01-18T03:23:56.807Z,1.83
2023-01-18T03:26:23.383Z,1.77
2023-01-18T03:29:10.573Z,1.84
2023-01-18T03:32:03.443Z,1.89
2023-01-18T03:34:39.207Z,1.59
2023-01-18T03:37:08.296Z,1.84
2023-01-18T03:39:45.297Z,1.81
2023-01-18T03:42:19.904Z,1.61
2023-01-18T03:44:48.085Z,1.63
2023-01-18T03:47:14.602Z,1.51
2023-01-18T03:49:41.156Z,1.57
2023-01-18T03:52:17.106Z,1.74
2023-01-18T03:54:56.307Z,1.74
2023-01-18T03:57:32.325Z,1.74
2023-01-18T03:59:59.183Z,1.80
2023-01-18T04:02:26.332Z,1.94
2023-01-18T04:04:57.592Z,1.62
2023-01-18T04:07:25.133Z,1.71
2023-01-18T04:09:51.864Z,1.75
2023-01-18T04:12:18.601Z,1.74
2023-01-18T04:14:45.132Z,1.74
2023-01-18T04:17:11.673Z,1.85
2023-01-18T04:19:40.591Z,1.40
2023-01-18T04:22:09.693Z,1.42
2023-01-18T04:24:36.433Z,1.37
2023-01-18T04:27:03.200Z,1.31
2023-01-18T04:29:29.764Z,1.52
2023-01-18T04:31:56.317Z,1.39
2023-01-18T04:34:25.104Z,1.40
2023-01-18T04:36:51.853Z,1.54
2023-01-18T04:39:18.732Z,1.64
2023-01-18T04:41:45.369Z,1.60
2023-01-18T04:44:11.900Z,1.52
2023-01-18T04:46:38.669Z,1.61
2023-01-18T04:49:05.976Z,1.41
2023-01-18T04:51:32.692Z,1.35
2023-01-18T04:53:59.720Z,1.22
2023-01-18T04:56:26.297Z,1.41
2023-01-18T04:58:54.110Z,1.53
2023-01-18T05:01:20.774Z,1.13
2023-01-18T05:03:47.469Z,1.14
2023-01-18T05:06:15.272Z,1.39
2023-01-18T05:08:42.583Z,1.56
2023-01-18T05:11:10.095Z,1.53
2023-01-18T05:13:36.670Z,1.15
2023-01-18T05:16:06.003Z,1.48
2023-01-18T05:18:32.836Z,1.34
2023-01-18T05:20:59.374Z,1.26
2023-01-18T05:23:25.941Z,1.00
2023-01-18T05:25:53.266Z,1.19
2023-01-18T05:28:19.813Z,1.07
2023-01-18T05:30:48.156Z,1.26
2023-01-18T05:33:14.732Z,1.36
2023-01-18T05:35:41.281Z,1.15
2023-01-18T05:38:07.848Z,1.17
2023-01-18T05:40:34.393Z,1.21
2023-01-18T05:43:01.214Z,1.20
2023-01-18T05:45:27.934Z,1.19
2023-01-18T05:47:54.662Z,1.37
2023-01-18T05:50:21.209Z,1.18
2023-01-18T05:52:47.798Z,1.04
2023-01-18T05:55:15.936Z,1.04
2023-01-18T05:57:42.810Z,1.14
2023-01-18T06:00:09.775Z,1.20
2023-01-18T06:02:39.118Z,1.28
2023-01-18T06:05:05.897Z,1.18
2023-01-18T06:07:32.465Z,1.27
2023-01-18T06:09:59.274Z,1.35
2023-01-18T06:12:25.814Z,1.19
2023-01-18T06:14:52.370Z,1.22
2023-01-18T06:17:19.034Z,1.21
2023-01-18T06:19:45.737Z,1.31
2023-01-18T06:22:12.691Z,1.46
2023-01-18T06:24:39.215Z,1.53
2023-01-18T06:27:05.771Z,1.55
2023-01-18T06:29:32.415Z,1.42
2023-01-18T06:31:58.976Z,1.41
2023-01-18T06:34:25.696Z,1.13
2023-01-18T06:36:52.245Z,1.45
2023-01-18T06:39:18.887Z,1.45
2023-01-18T06:41:45.468Z,1.56
2023-01-18T06:44:12.007Z,1.44
2023-01-18T06:46:38.579Z,1.42
2023-01-18T06:49:05.172Z,1.29
2023-01-18T06:51:31.767Z,1.16
2023-01-18T06:53:58.731Z,1.15
2023-01-18T06:56:26.913Z,1.17
2023-01-18T06:58:55.892Z,1.28
2023-01-18T07:01:22.497Z,1.30
2023-01-18T07:03:49.145Z,0.88
2023-01-18T07:06:18.827Z,1.01
2023-01-18T07:08:45.391Z,1.07
2023-01-18T07:11:15.096Z,1.04
2023-01-18T07:13:44.160Z,1.26
2023-01-18T07:16:18.174Z,1.23
2023-01-18T07:18:46.943Z,1.00
2023-01-18T07:21:15.270Z,1.15
2023-01-18T07:23:42.437Z,1.03
2023-01-18T07:26:10.024Z,1.05
2023-01-18T07:28:36.963Z,1.05
2023-01-18T07:31:04.076Z,1.21
2023-01-18T07:33:30.802Z,1.05
2023-01-18T07:35:58.285Z,1.05
2023-01-18T07:38:25.011Z,1.21
2023-01-18T07:40:57.639Z,0.92
2023-01-18T07:43:24.668Z,0.83
2023-01-18T07:45:54.564Z,0.83
2023-01-18T07:48:22.011Z,0.90
2023-01-18T07:51:01.912Z,0.89
2023-01-18T07:53:31.240Z,0.87
2023-01-18T07:56:01.214Z,0.79
2023-01-18T07:58:28.009Z,1.10
2023-01-18T08:00:54.588Z,0.79
2023-01-18T08:03:21.512Z,0.63
2023-01-18T08:05:48.242Z,0.75
2023-01-18T08:08:18.473Z,1.07
2023-01-18T08:10:45.147Z,0.71
2023-01-18T08:13:11.762Z,0.81
2023-01-18T08:15:38.561Z,0.60
2023-01-18T08:18:05.483Z,0.85
2023-01-18T08:20:32.287Z,0.80
2023-01-18T08:22:59.683Z,0.87
2023-01-18T08:25:30.203Z,1.01
2023-01-18T08:28:00.257Z,1.20
2023-01-18T08:30:28.359Z,0.88
2023-01-18T08:32:56.188Z,0.77
2023-01-18T08:35:23.888Z,0.88
2023-01-18T08:37:53.299Z,0.65
2023-01-18T08:40:20.887Z,0.63
2023-01-18T08:42:47.432Z,0.79
2023-01-18T08:45:14.339Z,0.78
2023-01-18T08:47:43.660Z,0.75
2023-01-18T08:50:10.564Z,0.60
2023-01-18T08:52:37.121Z,0.64
2023-01-18T08:55:04.706Z,0.87
2023-01-18T08:57:31.380Z,0.85
2023-01-18T08:59:58.174Z,0.96
2023-01-18T09:02:25.057Z,1.10
2023-01-18T09:04:52.810Z,0.72
2023-01-18T09:07:19.388Z,1.01
2023-01-18T09:09:46.203Z,1.01
2023-01-18T09:12:12.978Z,0.88
2023-01-18T09:14:40.227Z,1.19
2023-01-18T09:17:06.788Z,0.97
2023-01-18T09:19:33.763Z,1.05
2023-01-18T09:22:00.924Z,1.24
2023-01-18T09:24:27.498Z,1.24
2023-01-18T09:26:54.186Z,1.09
2023-01-18T09:29:20.935Z,0.85
2023-01-18T09:31:49.343Z,0.82
2023-01-18T09:34:19.754Z,0.86
2023-01-18T09:36:47.259Z,1.10
2023-01-18T09:39:14.144Z,1.13
2023-01-18T09:41:43.019Z,0.97
2023-01-18T09:44:21.730Z,0.95
2023-01-18T09:46:51.841Z,0.91
2023-01-18T09:49:21.296Z,1.22
2023-01-18T09:52:00.574Z,1.12
2023-01-18T09:54:30.450Z,1.05
2023-01-18T09:57:16.563Z,1.05
2023-01-18T09:59:46.367Z,0.76
2023-01-18T10:02:20.052Z,1.04
2023-01-18T10:04:48.003Z,0.81
2023-01-18T10:07:18.144Z,0.93
2023-01-18T10:09:49.829Z,0.63
2023-01-18T10:12:31.798Z,0.67
2023-01-18T10:15:01.387Z,1.04
2023-01-18T10:17:38.356Z,0.57
2023-01-18T10:20:20.353Z,0.85
2023-01-18T10:22:49.464Z,1.20
2023-01-18T10:25:19.405Z,0.80
2023-01-18T10:27:50.088Z,1.04
2023-01-18T10:30:39.688Z,1.05
2023-01-18T10:33:22.093Z,1.00
2023-01-18T10:35:50.110Z,1.01
2023-01-18T10:38:18.051Z,1.17
2023-01-18T10:40:46.538Z,1.25
2023-01-18T10:43:15.635Z,1.12
2023-01-18T10:45:42.279Z,0.87
2023-01-18T10:48:17.905Z,1.10
2023-01-18T10:50:45.765Z,0.97
2023-01-18T10:53:24.311Z,0.79
2023-01-18T10:55:54.282Z,0.95
2023-01-18T10:58:24.422Z,1.15
2023-01-18T11:00:55.217Z,1.46
2023-01-18T11:03:22.828Z,1.18
2023-01-18T11:05:49.426Z,1.16
2023-01-18T11:08:21.570Z,1.40
2023-01-18T11:10:58.193Z,1.00
2023-01-18T11:13:25.699Z,1.30
2023-01-18T11:16:00.298Z,1.23
2023-01-18T11:18:33.205Z,1.26
2023-01-18T11:21:00.005Z,1.49
2023-01-18T11:23:30.531Z,1.60
2023-01-18T11:25:57.242Z,1.29
2023-01-18T11:28:23.827Z,1.30
2023-01-18T11:30:57.565Z,1.24
2023-01-18T11:33:25.793Z,1.56
2023-01-18T11:35:56.714Z,1.25
2023-01-18T11:38:26.617Z,0.93
2023-01-18T11:41:11.993Z,1.23
2023-01-18T11:43:39.660Z,1.20
2023-01-18T11:46:24.808Z,0.93
2023-01-18T11:48:58.951Z,0.79
2023-01-18T11:51:25.464Z,0.92
2023-01-18T11:53:54.806Z,1.06
2023-01-18T11:56:27.647Z,1.10
2023-01-18T11:58:54.265Z,1.08
2023-01-18T12:01:41.522Z,0.86
2023-01-18T12:04:08.142Z,1.33
2023-01-18T12:06:54.612Z,1.26
2023-01-18T12:09:32.655Z,1.01
2023-01-18T12:12:18.223Z,1.09
2023-01-18T12:14:49.159Z,0.88
2023-01-18T12:17:25.042Z,1.29
2023-01-18T12:19:58.712Z,1.00
2023-01-18T12:22:36.539Z,1.06
2023-01-18T12:25:21.399Z,1.14
2023-01-18T12:28:07.572Z,0.92
2023-01-18T12:30:34.257Z,1.03
2023-01-18T12:33:05.308Z,0.95
2023-01-18T12:35:42.421Z,1.13
2023-01-18T12:38:08.933Z,1.02
2023-01-18T12:40:44.262Z,1.20
2023-01-18T12:43:11.248Z,1.29
2023-01-18T12:45:50.074Z,1.22
2023-01-18T12:48:16.840Z,1.35
2023-01-18T12:50:43.777Z,1.47
2023-01-18T12:53:22.578Z,1.49
2023-01-18T12:55:49.967Z,1.15
2023-01-18T12:58:18.726Z,1.16
2023-01-18T13:00:47.187Z,1.18
2023-01-18T13:03:14.801Z,1.56
2023-01-18T13:05:52.681Z,1.90
2023-01-18T13:08:24.002Z,1.68
2023-01-18T13:10:50.671Z,1.72
2023-01-18T13:13:18.974Z,1.24
2023-01-18T13:15:47.809Z,1.20
2023-01-18T13:18:15.998Z,1.23
2023-01-18T13:20:58.424Z,1.22
2023-01-18T13:23:27.455Z,1.44
2023-01-18T13:26:01.080Z,1.47
2023-01-18T13:28:27.682Z,1.51
2023-01-18T13:30:56.710Z,1.38
2023-01-18T13:33:24.187Z,1.51
2023-01-18T13:36:21.624Z,1.57
2023-01-18T13:38:52.372Z,1.83
2023-01-18T13:41:25.881Z,1.65
2023-01-18T13:43:53.420Z,1.55
2023-01-18T13:46:21.085Z,1.63
2023-01-18T13:48:47.693Z,1.60
2023-01-18T13:51:34.500Z,1.39
2023-01-18T13:54:01.076Z,1.53
2023-01-18T13:56:28.491Z,1.63
2023-01-18T13:58:59.076Z,1.69
2023-01-18T14:01:26.724Z,1.70
2023-01-18T14:03:54.267Z,1.73
2023-01-18T14:06:25.717Z,1.69
2023-01-18T14:08:53.322Z,1.84
2023-01-18T14:11:27.173Z,1.95
2023-01-18T14:13:53.693Z,2.11
2023-01-18T14:16:24.234Z,1.75
2023-01-18T14:18:52.179Z,1.76
2023-01-18T14:21:22.297Z,1.78
2023-01-18T14:23:57.823Z,1.54
2023-01-18T14:26:26.633Z,1.69
2023-01-18T14:28:54.355Z,1.60
2023-01-18T14:31:23.057Z,1.70
2023-01-18T14:33:50.101Z,1.63
2023-01-18T14:36:20.848Z,1.52
2023-01-18T14:38:47.480Z,1.77
2023-01-18T14:41:16.988Z,1.64
2023-01-18T14:43:49.569Z,1.46
2023-01-18T14:46:16.844Z,1.71
2023-01-18T14:48:46.611Z,1.57
2023-01-18T14:51:17.195Z,1.46
2023-01-18T14:53:49.457Z,1.74
2023-01-18T14:56:16.196Z,1.70
2023-01-18T14:58:43.771Z,1.70
2023-01-18T15:01:43.955Z,1.85
2023-01-18T15:04:21.318Z,1.73
2023-01-18T15:06:49.018Z,1.75
2023-01-18T15:09:15.629Z,1.73
2023-01-18T15:11:42.266Z,1.90
2023-01-18T15:14:17.804Z,1.75
2023-01-18T15:16:44.812Z,1.79
2023-01-18T15:19:16.916Z,1.76
2023-01-18T15:21:43.683Z,1.63
2023-01-18T15:24:12.566Z,1.69
2023-01-18T15:26:46.908Z,1.60
2023-01-18T15:29:13.609Z,1.39
2023-01-18T15:31:53.573Z,1.66
2023-01-18T15:34:30.412Z,1.73
2023-01-18T15:36:57.615Z,1.71
2023-01-18T15:39:24.263Z,1.92
2023-01-18T15:41:50.801Z,1.73
2023-01-18T15:44:32.444Z,1.63
2023-01-18T15:46:58.980Z,1.58
2023-01-18T15:49:25.604Z,1.30
2023-01-18T15:51:57.213Z,1.44
2023-01-18T15:54:27.546Z,1.37
2023-01-18T15:56:56.204Z,1.30
2023-01-18T15:59:23.376Z,1.34
2023-01-18T16:02:08.749Z,1.52
2023-01-18T16:04:35.531Z,1.53
2023-01-18T16:07:22.034Z,1.47
2023-01-18T16:09:48.607Z,1.41
2023-01-18T16:12:32.178Z,1.43
2023-01-18T16:14:58.844Z,1.54
2023-01-18T16:17:27.334Z,1.44
2023-01-18T16:19:54.440Z,1.41
2023-01-18T16:22:22.370Z,1.51
2023-01-18T16:24:50.894Z,1.65
2023-01-18T16:27:19.161Z,1.56
2023-01-18T16:29:46.660Z,1.59
2023-01-18T16:32:27.706Z,1.43
2023-01-18T16:34:58.279Z,1.47
2023-01-18T16:37:24.922Z,1.58
2023-01-18T16:39:51.706Z,1.63
2023-01-18T16:42:19.918Z,1.51
2023-01-18T17:04:27.984Z,1.45
2023-01-18T17:07:00.410Z,1.35
2023-01-18T17:09:47.930Z,1.42
2023-01-18T17:12:18.145Z,1.25
2023-01-18T17:14:44.717Z,1.31
2023-01-18T17:17:11.516Z,1.29
2023-01-18T17:19:38.357Z,1.38
2023-01-18T17:22:07.587Z,1.47
2023-01-18T17:24:34.132Z,1.65
2023-01-18T17:27:01.382Z,1.58
2023-01-18T17:29:28.007Z,1.46
2023-01-18T17:31:54.616Z,1.60
2023-01-18T17:34:27.144Z,1.60
2023-01-18T17:36:55.217Z,1.58
2023-01-18T17:39:24.976Z,1.59
2023-01-18T17:41:58.671Z,1.48
2023-01-18T17:44:36.846Z,1.44
2023-01-18T17:47:03.917Z,1.24
2023-01-18T17:49:32.501Z,1.23
2023-01-18T17:51:59.181Z,1.02
2023-01-18T17:54:26.189Z,1.08
2023-01-18T17:56:53.493Z,1.19
2023-01-18T17:59:20.337Z,1.38
2023-01-18T18:01:49.293Z,1.45
2023-01-18T18:04:16.253Z,1.33
2023-01-18T18:06:49.725Z,1.11
2023-01-18T18:09:20.543Z,1.05
2023-01-18T18:11:47.434Z,1.04
2023-01-18T18:14:14.430Z,1.02
2023-01-18T18:16:43.444Z,1.02
2023-01-18T18:19:13.205Z,1.03
2023-01-18T18:21:39.784Z,0.90
2023-01-18T18:24:06.468Z,0.70
2023-01-18T18:26:33.171Z,0.82
2023-01-18T18:29:00.273Z,0.91
2023-01-18T18:31:26.891Z,0.68
2023-01-18T18:33:53.505Z,0.76
2023-01-18T18:36:21.364Z,0.67
2023-01-18T18:38:47.905Z,0.49
2023-01-18T18:41:14.441Z,0.47
2023-01-18T18:43:40.992Z,0.56
2023-01-18T18:46:07.608Z,0.60
2023-01-18T18:48:34.328Z,0.61
2023-01-18T18:51:00.899Z,0.56
2023-01-18T18:53:37.524Z,0.54
2023-01-18T18:56:07.227Z,0.63
2023-01-18T18:58:34.198Z,0.63
2023-01-18T19:01:01.016Z,0.74
2023-01-18T19:03:27.696Z,0.73
2023-01-18T19:05:54.304Z,0.56
2023-01-18T19:08:20.918Z,0.58
2023-01-18T19:10:50.929Z,0.58
2023-01-18T19:13:18.848Z,0.53
2023-01-18T19:15:48.921Z,0.50
2023-01-18T19:18:16.995Z,0.63
2023-01-18T19:20:44.157Z,0.63
2023-01-18T19:23:10.983Z,0.58
2023-01-18T19:25:38.140Z,0.55
2023-01-18T19:28:04.913Z,0.44
2023-01-18T19:30:33.436Z,0.65
2023-01-18T19:33:00.380Z,0.70
2023-01-18T19:35:27.158Z,0.95
2023-01-18T19:37:53.878Z,0.86
2023-01-18T19:40:21.053Z,1.02
2023-01-18T19:42:59.823Z,1.02
2023-01-18T19:45:28.591Z,0.80
2023-01-18T19:47:55.972Z,0.64
2023-01-18T19:50:22.590Z,0.69
2023-01-18T19:52:51.137Z,0.70
2023-01-18T19:55:17.813Z,0.65
2023-01-18T19:57:44.814Z,0.31
2023-01-18T20:00:16.695Z,0.45
2023-01-18T20:02:43.640Z,0.53
2023-01-18T20:05:10.529Z,0.53
2023-01-18T20:07:42.497Z,0.50
2023-01-18T20:10:20.766Z,0.68
2023-01-18T20:12:48.282Z,0.55
2023-01-18T20:15:19.152Z,0.63
2023-01-18T20:17:45.756Z,0.71
2023-01-18T20:20:16.134Z,0.74
2023-01-18T20:22:45.917Z,0.70
2023-01-18T20:25:28.459Z,0.53
2023-01-18T20:27:57.929Z,0.41
2023-01-18T20:30:25.873Z,0.41
2023-01-18T20:32:52.749Z,0.35
2023-01-18T20:35:20.229Z,0.08
2023-01-18T20:37:46.897Z,-0.03
2023-01-18T20:40:16.606Z,-0.11
2023-01-18T20:42:45.728Z,-0.10
2023-01-18T20:45:15.704Z,-0.11
2023-01-18T20:47:42.838Z,-0.01
2023-01-18T20:50:09.870Z,-0.07
2023-01-18T20:52:36.418Z,0.07
2023-01-18T20:55:03.162Z,0.01
2023-01-18T20:57:30.576Z,0.10
2023-01-18T20:59:57.438Z,-0.06
2023-01-18T21:02:24.630Z,-0.17
2023-01-18T21:04:51.251Z,-0.21
2023-01-18T21:07:17.813Z,-0.16
2023-01-18T21:09:44.431Z,-0.24
2023-01-18T21:12:10.982Z,-0.07
2023-01-18T21:14:37.543Z,-0.13
2023-01-18T21:17:04.110Z,-0.14
2023-01-18T21:19:30.836Z,-0.19
2023-01-18T21:21:57.403Z,-0.16
2023-01-18T21:24:24.118Z,-0.18
2023-01-18T21:26:51.037Z,-0.12
2023-01-18T21:29:17.683Z,-0.15
2023-01-18T21:31:44.383Z,-0.29
2023-01-18T21:34:11.085Z,-0.31
2023-01-18T21:36:37.660Z,-0.35
2023-01-18T21:39:04.665Z,-0.35
2023-01-18T21:41:49.649Z,-0.25
2023-01-18T21:44:34.793Z,-0.18
2023-01-18T21:47:01.374Z,-0.34
2023-01-18T21:50:15.678Z,-0.24
2023-01-18T21:52:51.999Z,-0.19
2023-01-18T21:55:18.815Z,-0.17
2023-01-18T21:57:45.392Z,-0.23
2023-01-18T22:00:12.171Z,-0.32
2023-01-18T22:02:38.863Z,-0.22
2023-01-18T22:05:05.812Z,-0.06
2023-01-18T22:07:33.143Z,0.02
2023-01-18T22:10:04.971Z,-0.01
2023-01-18T22:12:35.293Z,0.01
2023-01-18T22:15:03.119Z,0.10
2023-01-18T22:17:29.954Z,0.11
2023-01-18T22:19:57.258Z,0.11
2023-01-18T22:22:23.859Z,0.10
2023-01-18T22:24:50.553Z,0.10
2023-01-18T22:27:17.082Z,-0.17
2023-01-18T22:29:43.649Z,-0.60
2023-01-18T22:32:10.226Z,-0.38
2023-01-18T22:34:36.813Z,-0.19
2023-01-18T22:37:03.643Z,-0.24
2023-01-18T22:39:30.207Z,-0.17
2023-01-18T22:41:56.782Z,-0.11
2023-01-18T22:44:23.334Z,-0.06
2023-01-18T22:46:49.904Z,-0.22
2023-01-18T22:49:17.032Z,-0.11
2023-01-18T22:51:44.267Z,-0.05
2023-01-18T22:54:10.852Z,-0.07
2023-01-18T22:56:37.513Z,-0.02
2023-01-18T22:59:04.125Z,-0.18
2023-01-18T23:01:31.867Z,-0.28
2023-01-18T23:03:59.359Z,-0.25
2023-01-18T23:06:26.528Z,-0.13
2023-01-18T23:08:54.446Z,-0.18
2023-01-18T23:11:22.012Z,-0.19
2023-01-18T23:14:09.609Z,-0.43
2023-01-18T23:16:54.894Z,-0.31
2023-01-18T23:19:21.673Z,-0.27
2023-01-18T23:21:48.240Z,-0.31
2023-01-18T23:24:14.779Z,-0.49
2023-01-18T23:26:45.021Z,-0.45
2023-01-18T23:29:11.680Z,-0.40
2023-01-18T23:31:38.305Z,-0.55
2023-01-18T23:34:08.469Z,-0.45
2023-01-18T23:36:35.041Z,-0.45
2023-01-18T23:39:20.665Z,-0.36
2023-01-18T23:42:06.999Z,-0.71
2023-01-18T23:44:52.440Z,-0.85
2023-01-18T23:47:40.850Z,-0.91
2023-01-18T23:50:25.907Z,-0.95
2023-01-18T23:53:11.265Z,-1.02
2023-01-18T23:55:43.853Z,-0.99
2023-01-18T23:58:10.424Z,-0.72
